sensor_id;sensor_type;location;lat;lon;timestamp;P1;durP1;ratioP1;P2;durP2;ratioP2
6505;SDS011;3286;49.858;8.768;2023-07-24T00:02:22;3.90;;;2.67;;
6505;SDS011;3286;49.858;8.768;2023-07-24T00:04:49;5.28;;;2.35;;
6505;SDS011;3286;49.858;8.768;2023-07-24T00:07:15;5.53;;;2.72;;
6505;SDS011;3286;49.858;8.768;2023-07-24T00:09:42;5.50;;;2.30;;
6505;SDS011;3286;49.858;8.768;2023-07-24T00:12:09;2.88;;;2.55;;
6505;SDS011;3286;49.858;8.768;2023-07-24T00:14:35;3.72;;;2.63;;
6505;SDS011;3286;49.858;8.768;2023-07-24T00:17:04;30.50;;;6.78;;
6505;SDS011;3286;49.858;8.768;2023-07-24T00:19:31;4.65;;;2.97;;
6505;SDS011;3286;49.858;8.768;2023-07-24T00:21:57;4.15;;;2.83;;
6505;SDS011;3286;49.858;8.768;2023-07-24T00:24:24;3.83;;;2.80;;
6505;SDS011;3286;49.858;8.768;2023-07-24T00:26:51;3.35;;;2.70;;
6505;SDS011;3286;49.858;8.768;2023-07-24T00:29:17;5.35;;;3.15;;
6505;SDS011;3286;49.858;8.768;2023-07-24T00:31:44;3.95;;;2.72;;
6505;SDS011;3286;49.858;8.768;2023-07-24T00:34:12;4.45;;;3.00;;
6505;SDS011;3286;49.858;8.768;2023-07-24T00:36:38;4.03;;;2.80;;
6505;SDS011;3286;49.858;8.768;2023-07-24T00:39:05;7.90;;;3.00;;
6505;SDS011;3286;49.858;8.768;2023-07-24T00:41:32;4.82;;;2.92;;
6505;SDS011;3286;49.858;8.768;2023-07-24T00:43:58;8.23;;;3.20;;
6505;SDS011;3286;49.858;8.768;2023-07-24T00:46:25;5.07;;;2.63;;
6505;SDS011;3286;49.858;8.768;2023-07-24T00:48:52;3.78;;;2.55;;
6505;SDS011;3286;49.858;8.768;2023-07-24T00:51:37;5.75;;;2.70;;
6505;SDS011;3286;49.858;8.768;2023-07-24T00:54:03;4.38;;;2.85;;
6505;SDS011;3286;49.858;8.768;2023-07-24T00:56:32;4.40;;;2.70;;
6505;SDS011;3286;49.858;8.768;2023-07-24T00:59:00;4.60;;;2.70;;
6505;SDS011;3286;49.858;8.768;2023-07-24T01:01:27;4.57;;;2.75;;
6505;SDS011;3286;49.858;8.768;2023-07-24T01:03:55;3.70;;;2.72;;
6505;SDS011;3286;49.858;8.768;2023-07-24T01:06:23;3.92;;;2.80;;
6505;SDS011;3286;49.858;8.768;2023-07-24T01:08:51;4.85;;;3.05;;
6505;SDS011;3286;49.858;8.768;2023-07-24T01:11:19;9.27;;;2.90;;
6505;SDS011;3286;49.858;8.768;2023-07-24T01:13:48;5.40;;;3.15;;
6505;SDS011;3286;49.858;8.768;2023-07-24T01:16:22;3.28;;;2.63;;
6505;SDS011;3286;49.858;8.768;2023-07-24T01:18:52;10.05;;;3.03;;
6505;SDS011;3286;49.858;8.768;2023-07-24T01:21:24;4.65;;;3.20;;
6505;SDS011;3286;49.858;8.768;2023-07-24T01:24:03;5.80;;;3.42;;
6505;SDS011;3286;49.858;8.768;2023-07-24T01:26:45;5.25;;;3.10;;
6505;SDS011;3286;49.858;8.768;2023-07-24T01:29:13;5.03;;;3.38;;
6505;SDS011;3286;49.858;8.768;2023-07-24T01:31:40;5.47;;;3.08;;
6505;SDS011;3286;49.858;8.768;2023-07-24T01:34:06;4.68;;;3.17;;
6505;SDS011;3286;49.858;8.768;2023-07-24T01:36:33;3.80;;;3.20;;
6505;SDS011;3286;49.858;8.768;2023-07-24T01:39:00;4.50;;;3.33;;
6505;SDS011;3286;49.858;8.768;2023-07-24T01:41:27;5.65;;;3.38;;
6505;SDS011;3286;49.858;8.768;2023-07-24T01:43:58;4.57;;;3.30;;
6505;SDS011;3286;49.858;8.768;2023-07-24T01:46:25;6.75;;;3.28;;
6505;SDS011;3286;49.858;8.768;2023-07-24T01:48:51;5.22;;;3.10;;
6505;SDS011;3286;49.858;8.768;2023-07-24T01:51:18;4.13;;;3.00;;
6505;SDS011;3286;49.858;8.768;2023-07-24T01:53:45;5.28;;;3.35;;
6505;SDS011;3286;49.858;8.768;2023-07-24T01:56:11;6.00;;;3.38;;
6505;SDS011;3286;49.858;8.768;2023-07-24T01:58:39;4.75;;;3.10;;
6505;SDS011;3286;49.858;8.768;2023-07-24T02:01:07;4.68;;;3.20;;
6505;SDS011;3286;49.858;8.768;2023-07-24T02:03:34;3.72;;;2.75;;
6505;SDS011;3286;49.858;8.768;2023-07-24T02:06:00;10.95;;;4.05;;
6505;SDS011;3286;49.858;8.768;2023-07-24T02:11:31;5.68;;;3.15;;
6505;SDS011;3286;49.858;8.768;2023-07-24T02:13:57;4.90;;;3.10;;
6505;SDS011;3286;49.858;8.768;2023-07-24T02:16:25;6.00;;;3.42;;
6505;SDS011;3286;49.858;8.768;2023-07-24T02:18:53;6.28;;;3.72;;
6505;SDS011;3286;49.858;8.768;2023-07-24T02:21:20;4.72;;;3.38;;
6505;SDS011;3286;49.858;8.768;2023-07-24T02:23:46;6.03;;;3.33;;
6505;SDS011;3286;49.858;8.768;2023-07-24T02:26:13;5.40;;;3.40;;
6505;SDS011;3286;49.858;8.768;2023-07-24T02:28:39;3.97;;;3.30;;
6505;SDS011;3286;49.858;8.768;2023-07-24T02:31:06;5.47;;;3.70;;
6505;SDS011;3286;49.858;8.768;2023-07-24T02:33:34;4.93;;;3.50;;
6505;SDS011;3286;49.858;8.768;2023-07-24T02:36:01;6.13;;;3.63;;
6505;SDS011;3286;49.858;8.768;2023-07-24T02:38:28;5.47;;;3.50;;
6505;SDS011;3286;49.858;8.768;2023-07-24T02:40:54;5.85;;;3.70;;
6505;SDS011;3286;49.858;8.768;2023-07-24T02:43:21;5.85;;;3.42;;
6505;SDS011;3286;49.858;8.768;2023-07-24T02:45:47;5.30;;;3.55;;
6505;SDS011;3286;49.858;8.768;2023-07-24T02:48:14;5.00;;;3.40;;
6505;SDS011;3286;49.858;8.768;2023-07-24T02:50:42;6.63;;;3.88;;
6505;SDS011;3286;49.858;8.768;2023-07-24T02:53:09;5.63;;;3.45;;
6505;SDS011;3286;49.858;8.768;2023-07-24T02:55:35;4.88;;;3.67;;
6505;SDS011;3286;49.858;8.768;2023-07-24T02:58:02;8.05;;;4.28;;
6505;SDS011;3286;49.858;8.768;2023-07-24T03:00:31;5.13;;;3.85;;
6505;SDS011;3286;49.858;8.768;2023-07-24T03:02:58;6.13;;;3.83;;
6505;SDS011;3286;49.858;8.768;2023-07-24T03:05:24;5.32;;;3.58;;
6505;SDS011;3286;49.858;8.768;2023-07-24T03:07:52;5.57;;;3.38;;
6505;SDS011;3286;49.858;8.768;2023-07-24T03:10:19;7.03;;;3.85;;
6505;SDS011;3286;49.858;8.768;2023-07-24T03:12:46;5.90;;;3.97;;
6505;SDS011;3286;49.858;8.768;2023-07-24T03:15:12;7.13;;;4.38;;
6505;SDS011;3286;49.858;8.768;2023-07-24T03:17:39;6.45;;;3.72;;
6505;SDS011;3286;49.858;8.768;2023-07-24T03:20:08;7.88;;;4.10;;
6505;SDS011;3286;49.858;8.768;2023-07-24T03:22:44;6.15;;;4.20;;
6505;SDS011;3286;49.858;8.768;2023-07-24T03:25:13;5.00;;;3.95;;
6505;SDS011;3286;49.858;8.768;2023-07-24T03:27:40;9.98;;;4.60;;
6505;SDS011;3286;49.858;8.768;2023-07-24T03:30:07;7.07;;;4.28;;
6505;SDS011;3286;49.858;8.768;2023-07-24T03:32:35;6.32;;;4.55;;
6505;SDS011;3286;49.858;8.768;2023-07-24T03:35:02;6.25;;;4.43;;
6505;SDS011;3286;49.858;8.768;2023-07-24T03:37:30;7.65;;;4.03;;
6505;SDS011;3286;49.858;8.768;2023-07-24T03:39:56;6.78;;;4.00;;
6505;SDS011;3286;49.858;8.768;2023-07-24T03:42:28;12.38;;;5.28;;
6505;SDS011;3286;49.858;8.768;2023-07-24T03:44:56;5.70;;;4.15;;
6505;SDS011;3286;49.858;8.768;2023-07-24T03:47:23;5.85;;;4.10;;
6505;SDS011;3286;49.858;8.768;2023-07-24T03:49:50;7.68;;;5.20;;
6505;SDS011;3286;49.858;8.768;2023-07-24T03:52:17;6.78;;;4.22;;
6505;SDS011;3286;49.858;8.768;2023-07-24T03:54:44;5.60;;;4.18;;
6505;SDS011;3286;49.858;8.768;2023-07-24T03:57:11;6.63;;;3.80;;
6505;SDS011;3286;49.858;8.768;2023-07-24T03:59:39;5.88;;;4.32;;
6505;SDS011;3286;49.858;8.768;2023-07-24T04:02:05;5.78;;;4.03;;
6505;SDS011;3286;49.858;8.768;2023-07-24T04:04:32;4.85;;;3.38;;
6505;SDS011;3286;49.858;8.768;2023-07-24T04:06:59;7.35;;;4.30;;
6505;SDS011;3286;49.858;8.768;2023-07-24T04:09:26;8.25;;;4.10;;
6505;SDS011;3286;49.858;8.768;2023-07-24T04:14:52;5.85;;;3.95;;
6505;SDS011;3286;49.858;8.768;2023-07-24T04:17:19;5.88;;;3.45;;
6505;SDS011;3286;49.858;8.768;2023-07-24T04:19:45;6.00;;;4.07;;
6505;SDS011;3286;49.858;8.768;2023-07-24T04:22:12;5.40;;;3.80;;
6505;SDS011;3286;49.858;8.768;2023-07-24T04:24:39;6.38;;;3.85;;
6505;SDS011;3286;49.858;8.768;2023-07-24T04:27:05;7.22;;;3.83;;
6505;SDS011;3286;49.858;8.768;2023-07-24T04:29:32;5.82;;;3.95;;
6505;SDS011;3286;49.858;8.768;2023-07-24T04:32:00;5.82;;;3.70;;
6505;SDS011;3286;49.858;8.768;2023-07-24T04:34:26;5.13;;;4.07;;
6505;SDS011;3286;49.858;8.768;2023-07-24T04:36:53;6.68;;;4.00;;
6505;SDS011;3286;49.858;8.768;2023-07-24T04:39:20;5.30;;;4.18;;
6505;SDS011;3286;49.858;8.768;2023-07-24T04:41:46;7.65;;;4.20;;
6505;SDS011;3286;49.858;8.768;2023-07-24T04:44:13;6.22;;;3.95;;
6505;SDS011;3286;49.858;8.768;2023-07-24T04:46:40;5.13;;;3.78;;
6505;SDS011;3286;49.858;8.768;2023-07-24T04:49:08;5.07;;;3.83;;
6505;SDS011;3286;49.858;8.768;2023-07-24T04:51:34;7.28;;;4.22;;
6505;SDS011;3286;49.858;8.768;2023-07-24T04:54:01;5.63;;;4.05;;
6505;SDS011;3286;49.858;8.768;2023-07-24T04:56:27;5.05;;;3.65;;
6505;SDS011;3286;49.858;8.768;2023-07-24T04:58:54;7.95;;;4.30;;
6505;SDS011;3286;49.858;8.768;2023-07-24T05:01:21;4.80;;;3.80;;
6505;SDS011;3286;49.858;8.768;2023-07-24T05:03:47;6.63;;;3.40;;
6505;SDS011;3286;49.858;8.768;2023-07-24T05:06:15;7.20;;;3.28;;
6505;SDS011;3286;49.858;8.768;2023-07-24T05:08:42;6.00;;;3.63;;
6505;SDS011;3286;49.858;8.768;2023-07-24T05:11:09;6.72;;;3.75;;
6505;SDS011;3286;49.858;8.768;2023-07-24T05:13:35;5.70;;;3.85;;
6505;SDS011;3286;49.858;8.768;2023-07-24T05:16:02;7.97;;;4.43;;
6505;SDS011;3286;49.858;8.768;2023-07-24T05:18:28;4.25;;;3.47;;
6505;SDS011;3286;49.858;8.768;2023-07-24T05:20:55;5.13;;;3.55;;
6505;SDS011;3286;49.858;8.768;2023-07-24T05:23:23;4.78;;;3.80;;
6505;SDS011;3286;49.858;8.768;2023-07-24T05:25:55;11.52;;;3.78;;
6505;SDS011;3286;49.858;8.768;2023-07-24T05:28:23;6.03;;;3.88;;
6505;SDS011;3286;49.858;8.768;2023-07-24T05:30:51;5.72;;;4.40;;
6505;SDS011;3286;49.858;8.768;2023-07-24T05:33:17;5.88;;;3.50;;
6505;SDS011;3286;49.858;8.768;2023-07-24T05:35:44;7.20;;;3.90;;
6505;SDS011;3286;49.858;8.768;2023-07-24T05:38:17;5.40;;;3.28;;
6505;SDS011;3286;49.858;8.768;2023-07-24T05:40:45;4.88;;;3.10;;
6505;SDS011;3286;49.858;8.768;2023-07-24T05:43:11;5.22;;;3.88;;
6505;SDS011;3286;49.858;8.768;2023-07-24T05:45:38;5.30;;;3.67;;
6505;SDS011;3286;49.858;8.768;2023-07-24T05:48:05;5.10;;;3.67;;
6505;SDS011;3286;49.858;8.768;2023-07-24T05:50:31;4.90;;;3.65;;
6505;SDS011;3286;49.858;8.768;2023-07-24T05:52:58;8.00;;;3.08;;
6505;SDS011;3286;49.858;8.768;2023-07-24T05:55:24;5.00;;;3.35;;
6505;SDS011;3286;49.858;8.768;2023-07-24T05:57:52;4.85;;;3.40;;
6505;SDS011;3286;49.858;8.768;2023-07-24T06:00:19;5.13;;;3.50;;
6505;SDS011;3286;49.858;8.768;2023-07-24T06:02:46;5.53;;;3.30;;
6505;SDS011;3286;49.858;8.768;2023-07-24T06:05:13;7.50;;;3.72;;
6505;SDS011;3286;49.858;8.768;2023-07-24T06:07:39;4.47;;;3.28;;
6505;SDS011;3286;49.858;8.768;2023-07-24T06:10:06;5.28;;;3.35;;
6505;SDS011;3286;49.858;8.768;2023-07-24T06:12:34;4.93;;;3.35;;
6505;SDS011;3286;49.858;8.768;2023-07-24T06:15:02;5.22;;;3.15;;
6505;SDS011;3286;49.858;8.768;2023-07-24T06:17:29;4.95;;;3.40;;
6505;SDS011;3286;49.858;8.768;2023-07-24T06:19:55;4.70;;;3.50;;
6505;SDS011;3286;49.858;8.768;2023-07-24T06:22:22;4.68;;;3.40;;
6505;SDS011;3286;49.858;8.768;2023-07-24T06:24:49;5.97;;;3.53;;
6505;SDS011;3286;49.858;8.768;2023-07-24T06:27:16;4.53;;;2.97;;
6505;SDS011;3286;49.858;8.768;2023-07-24T06:29:43;7.85;;;3.22;;
6505;SDS011;3286;49.858;8.768;2023-07-24T06:32:11;5.35;;;3.20;;
6505;SDS011;3286;49.858;8.768;2023-07-24T06:34:37;4.85;;;3.60;;
6505;SDS011;3286;49.858;8.768;2023-07-24T06:37:04;4.93;;;3.50;;
6505;SDS011;3286;49.858;8.768;2023-07-24T06:39:30;3.67;;;3.08;;
6505;SDS011;3286;49.858;8.768;2023-07-24T06:41:58;8.35;;;3.80;;
6505;SDS011;3286;49.858;8.768;2023-07-24T06:44:25;4.65;;;3.83;;
6505;SDS011;3286;49.858;8.768;2023-07-24T06:46:53;6.75;;;3.60;;
6505;SDS011;3286;49.858;8.768;2023-07-24T06:49:21;8.13;;;4.32;;
6505;SDS011;3286;49.858;8.768;2023-07-24T06:51:48;6.57;;;3.90;;
6505;SDS011;3286;49.858;8.768;2023-07-24T06:54:15;5.57;;;4.35;;
6505;SDS011;3286;49.858;8.768;2023-07-24T06:56:42;8.18;;;4.32;;
6505;SDS011;3286;49.858;8.768;2023-07-24T06:59:08;7.75;;;4.70;;
6505;SDS011;3286;49.858;8.768;2023-07-24T07:01:35;6.78;;;4.40;;
6505;SDS011;3286;49.858;8.768;2023-07-24T07:04:03;6.30;;;4.20;;
6505;SDS011;3286;49.858;8.768;2023-07-24T07:06:31;5.43;;;3.85;;
6505;SDS011;3286;49.858;8.768;2023-07-24T07:08:57;7.05;;;5.13;;
6505;SDS011;3286;49.858;8.768;2023-07-24T07:11:24;5.28;;;4.07;;
6505;SDS011;3286;49.858;8.768;2023-07-24T07:13:51;8.52;;;4.75;;
6505;SDS011;3286;49.858;8.768;2023-07-24T07:16:17;7.60;;;4.75;;
6505;SDS011;3286;49.858;8.768;2023-07-24T07:18:45;6.60;;;4.82;;
6505;SDS011;3286;49.858;8.768;2023-07-24T07:21:14;7.93;;;5.00;;
6505;SDS011;3286;49.858;8.768;2023-07-24T07:23:42;8.85;;;4.82;;
6505;SDS011;3286;49.858;8.768;2023-07-24T07:26:09;10.00;;;5.38;;
6505;SDS011;3286;49.858;8.768;2023-07-24T07:28:36;8.30;;;5.18;;
6505;SDS011;3286;49.858;8.768;2023-07-24T07:31:03;8.25;;;4.88;;
6505;SDS011;3286;49.858;8.768;2023-07-24T07:33:29;11.77;;;5.10;;
6505;SDS011;3286;49.858;8.768;2023-07-24T07:35:56;7.40;;;4.78;;
6505;SDS011;3286;49.858;8.768;2023-07-24T07:38:25;8.38;;;4.93;;
6505;SDS011;3286;49.858;8.768;2023-07-24T07:40:53;9.50;;;5.15;;
6505;SDS011;3286;49.858;8.768;2023-07-24T07:43:19;7.38;;;5.13;;
6505;SDS011;3286;49.858;8.768;2023-07-24T07:45:46;8.05;;;5.28;;
6505;SDS011;3286;49.858;8.768;2023-07-24T07:48:13;8.68;;;4.45;;
6505;SDS011;3286;49.858;8.768;2023-07-24T07:50:40;12.93;;;5.38;;
6505;SDS011;3286;49.858;8.768;2023-07-24T07:53:07;9.68;;;4.97;;
6505;SDS011;3286;49.858;8.768;2023-07-24T07:55:33;8.20;;;5.15;;
6505;SDS011;3286;49.858;8.768;2023-07-24T07:58:01;7.60;;;5.38;;
6505;SDS011;3286;49.858;8.768;2023-07-24T08:00:28;9.05;;;5.13;;
6505;SDS011;3286;49.858;8.768;2023-07-24T08:02:54;7.05;;;4.78;;
6505;SDS011;3286;49.858;8.768;2023-07-24T08:05:21;6.70;;;4.78;;
6505;SDS011;3286;49.858;8.768;2023-07-24T08:07:48;7.20;;;5.05;;
6505;SDS011;3286;49.858;8.768;2023-07-24T08:10:15;6.95;;;4.40;;
6505;SDS011;3286;49.858;8.768;2023-07-24T08:12:42;7.68;;;5.00;;
6505;SDS011;3286;49.858;8.768;2023-07-24T08:15:10;6.32;;;4.43;;
6505;SDS011;3286;49.858;8.768;2023-07-24T08:17:37;10.35;;;4.97;;
6505;SDS011;3286;49.858;8.768;2023-07-24T08:20:04;7.40;;;4.88;;
6505;SDS011;3286;49.858;8.768;2023-07-24T08:22:32;6.07;;;4.75;;
6505;SDS011;3286;49.858;8.768;2023-07-24T08:24:58;9.00;;;4.93;;
6505;SDS011;3286;49.858;8.768;2023-07-24T08:27:25;6.18;;;4.53;;
6505;SDS011;3286;49.858;8.768;2023-07-24T08:29:52;6.22;;;4.20;;
6505;SDS011;3286;49.858;8.768;2023-07-24T08:32:20;6.85;;;4.80;;
6505;SDS011;3286;49.858;8.768;2023-07-24T08:34:46;6.10;;;4.60;;
6505;SDS011;3286;49.858;8.768;2023-07-24T08:37:13;7.68;;;5.18;;
6505;SDS011;3286;49.858;8.768;2023-07-24T08:39:40;8.68;;;4.75;;
6505;SDS011;3286;49.858;8.768;2023-07-24T08:42:08;7.80;;;5.00;;
6505;SDS011;3286;49.858;8.768;2023-07-24T08:44:35;7.45;;;4.55;;
6505;SDS011;3286;49.858;8.768;2023-07-24T08:47:03;8.00;;;4.40;;
6505;SDS011;3286;49.858;8.768;2023-07-24T08:49:32;7.35;;;5.07;;
6505;SDS011;3286;49.858;8.768;2023-07-24T08:52:00;6.80;;;4.93;;
6505;SDS011;3286;49.858;8.768;2023-07-24T08:54:29;6.63;;;4.80;;
6505;SDS011;3286;49.858;8.768;2023-07-24T08:56:57;7.10;;;4.65;;
6505;SDS011;3286;49.858;8.768;2023-07-24T08:59:23;6.55;;;5.22;;
6505;SDS011;3286;49.858;8.768;2023-07-24T09:01:50;9.20;;;4.57;;
6505;SDS011;3286;49.858;8.768;2023-07-24T09:04:17;8.23;;;5.20;;
6505;SDS011;3286;49.858;8.768;2023-07-24T09:06:45;7.45;;;4.53;;
6505;SDS011;3286;49.858;8.768;2023-07-24T09:09:12;10.75;;;5.20;;
6505;SDS011;3286;49.858;8.768;2023-07-24T09:11:49;6.35;;;4.43;;
6505;SDS011;3286;49.858;8.768;2023-07-24T09:14:20;8.07;;;5.25;;
6505;SDS011;3286;49.858;8.768;2023-07-24T09:16:47;7.50;;;5.30;;
6505;SDS011;3286;49.858;8.768;2023-07-24T09:19:18;7.93;;;5.18;;
6505;SDS011;3286;49.858;8.768;2023-07-24T09:21:47;6.40;;;4.68;;
6505;SDS011;3286;49.858;8.768;2023-07-24T09:24:14;8.80;;;4.60;;
6505;SDS011;3286;49.858;8.768;2023-07-24T09:26:50;6.32;;;4.38;;
6505;SDS011;3286;49.858;8.768;2023-07-24T09:29:17;6.80;;;4.80;;
6505;SDS011;3286;49.858;8.768;2023-07-24T09:31:45;9.50;;;4.47;;
6505;SDS011;3286;49.858;8.768;2023-07-24T09:34:15;7.38;;;4.82;;
6505;SDS011;3286;49.858;8.768;2023-07-24T09:36:43;8.68;;;4.97;;
6505;SDS011;3286;49.858;8.768;2023-07-24T09:39:11;8.93;;;5.10;;
6505;SDS011;3286;49.858;8.768;2023-07-24T09:41:38;7.18;;;5.10;;
6505;SDS011;3286;49.858;8.768;2023-07-24T09:44:05;6.90;;;4.65;;
6505;SDS011;3286;49.858;8.768;2023-07-24T09:46:33;8.75;;;4.38;;
6505;SDS011;3286;49.858;8.768;2023-07-24T09:49:00;6.80;;;5.03;;
6505;SDS011;3286;49.858;8.768;2023-07-24T09:51:28;7.97;;;4.85;;
6505;SDS011;3286;49.858;8.768;2023-07-24T09:53:58;6.53;;;4.70;;
6505;SDS011;3286;49.858;8.768;2023-07-24T09:56:32;6.90;;;5.25;;
6505;SDS011;3286;49.858;8.768;2023-07-24T09:58:59;6.70;;;4.78;;
6505;SDS011;3286;49.858;8.768;2023-07-24T10:01:28;9.38;;;5.10;;
6505;SDS011;3286;49.858;8.768;2023-07-24T10:03:57;6.88;;;4.80;;
6505;SDS011;3286;49.858;8.768;2023-07-24T10:06:26;8.68;;;4.55;;
6505;SDS011;3286;49.858;8.768;2023-07-24T10:08:54;7.00;;;4.72;;
6505;SDS011;3286;49.858;8.768;2023-07-24T10:11:21;6.10;;;4.72;;
6505;SDS011;3286;49.858;8.768;2023-07-24T10:13:50;6.13;;;4.32;;
6505;SDS011;3286;49.858;8.768;2023-07-24T10:16:17;7.45;;;4.43;;
6505;SDS011;3286;49.858;8.768;2023-07-24T10:18:44;7.50;;;4.80;;
6505;SDS011;3286;49.858;8.768;2023-07-24T10:21:12;8.73;;;5.53;;
6505;SDS011;3286;49.858;8.768;2023-07-24T10:23:41;6.70;;;5.15;;
6505;SDS011;3286;49.858;8.768;2023-07-24T10:26:08;6.90;;;5.10;;
6505;SDS011;3286;49.858;8.768;2023-07-24T10:28:36;6.10;;;4.60;;
6505;SDS011;3286;49.858;8.768;2023-07-24T10:31:05;8.68;;;4.57;;
6505;SDS011;3286;49.858;8.768;2023-07-24T10:33:34;6.25;;;4.95;;
6505;SDS011;3286;49.858;8.768;2023-07-24T10:36:04;6.93;;;4.78;;
6505;SDS011;3286;49.858;8.768;2023-07-24T10:38:34;7.28;;;4.72;;
6505;SDS011;3286;49.858;8.768;2023-07-24T10:41:02;5.63;;;4.32;;
6505;SDS011;3286;49.858;8.768;2023-07-24T10:43:39;6.93;;;4.80;;
6505;SDS011;3286;49.858;8.768;2023-07-24T10:46:09;6.65;;;5.18;;
6505;SDS011;3286;49.858;8.768;2023-07-24T10:48:35;7.05;;;4.70;;
6505;SDS011;3286;49.858;8.768;2023-07-24T10:51:06;6.05;;;4.47;;
6505;SDS011;3286;49.858;8.768;2023-07-24T10:53:34;6.15;;;4.88;;
6505;SDS011;3286;49.858;8.768;2023-07-24T10:56:01;7.30;;;4.78;;
6505;SDS011;3286;49.858;8.768;2023-07-24T10:58:28;5.88;;;4.20;;
6505;SDS011;3286;49.858;8.768;2023-07-24T11:00:56;5.55;;;4.72;;
6505;SDS011;3286;49.858;8.768;2023-07-24T11:03:26;9.00;;;4.88;;
6505;SDS011;3286;49.858;8.768;2023-07-24T11:05:53;6.72;;;4.70;;
6505;SDS011;3286;49.858;8.768;2023-07-24T11:08:20;6.57;;;4.80;;
6505;SDS011;3286;49.858;8.768;2023-07-24T11:10:48;8.77;;;4.90;;
6505;SDS011;3286;49.858;8.768;2023-07-24T11:13:15;10.68;;;4.78;;
6505;SDS011;3286;49.858;8.768;2023-07-24T11:15:42;8.60;;;5.22;;
6505;SDS011;3286;49.858;8.768;2023-07-24T11:18:09;11.18;;;4.70;;
6505;SDS011;3286;49.858;8.768;2023-07-24T11:20:38;6.60;;;4.85;;
6505;SDS011;3286;49.858;8.768;2023-07-24T11:23:09;5.55;;;4.32;;
6505;SDS011;3286;49.858;8.768;2023-07-24T11:25:36;5.93;;;4.28;;
6505;SDS011;3286;49.858;8.768;2023-07-24T11:28:04;5.82;;;4.18;;
6505;SDS011;3286;49.858;8.768;2023-07-24T11:30:31;8.23;;;4.57;;
6505;SDS011;3286;49.858;8.768;2023-07-24T11:32:59;7.22;;;4.28;;
6505;SDS011;3286;49.858;8.768;2023-07-24T11:35:29;9.75;;;4.60;;
6505;SDS011;3286;49.858;8.768;2023-07-24T11:37:57;5.88;;;4.05;;
6505;SDS011;3286;49.858;8.768;2023-07-24T11:40:30;6.53;;;4.72;;
6505;SDS011;3286;49.858;8.768;2023-07-24T11:42:58;5.40;;;4.38;;
6505;SDS011;3286;49.858;8.768;2023-07-24T11:45:24;5.82;;;4.65;;
6505;SDS011;3286;49.858;8.768;2023-07-24T11:47:51;5.47;;;4.35;;
6505;SDS011;3286;49.858;8.768;2023-07-24T11:50:19;8.13;;;4.63;;
6505;SDS011;3286;49.858;8.768;2023-07-24T11:52:46;8.98;;;5.32;;
6505;SDS011;3286;49.858;8.768;2023-07-24T11:55:17;8.70;;;4.38;;
6505;SDS011;3286;49.858;8.768;2023-07-24T11:57:54;5.45;;;4.20;;
6505;SDS011;3286;49.858;8.768;2023-07-24T12:00:22;8.43;;;4.57;;
6505;SDS011;3286;49.858;8.768;2023-07-24T12:02:49;7.28;;;4.80;;
6505;SDS011;3286;49.858;8.768;2023-07-24T12:05:16;6.78;;;4.30;;
6505;SDS011;3286;49.858;8.768;2023-07-24T12:07:44;5.45;;;4.22;;
6505;SDS011;3286;49.858;8.768;2023-07-24T12:10:11;8.88;;;4.35;;
6505;SDS011;3286;49.858;8.768;2023-07-24T12:12:42;6.80;;;4.40;;
6505;SDS011;3286;49.858;8.768;2023-07-24T12:15:11;11.82;;;4.00;;
6505;SDS011;3286;49.858;8.768;2023-07-24T12:17:39;5.82;;;3.97;;
6505;SDS011;3286;49.858;8.768;2023-07-24T12:20:06;6.35;;;4.38;;
6505;SDS011;3286;49.858;8.768;2023-07-24T12:22:34;15.52;;;5.57;;
6505;SDS011;3286;49.858;8.768;2023-07-24T12:25:01;9.50;;;4.65;;
6505;SDS011;3286;49.858;8.768;2023-07-24T12:27:28;5.70;;;4.20;;
6505;SDS011;3286;49.858;8.768;2023-07-24T12:30:03;5.95;;;4.53;;
6505;SDS011;3286;49.858;8.768;2023-07-24T12:32:31;9.18;;;4.40;;
6505;SDS011;3286;49.858;8.768;2023-07-24T12:34:58;5.72;;;4.50;;
6505;SDS011;3286;49.858;8.768;2023-07-24T12:37:24;7.53;;;4.53;;
6505;SDS011;3286;49.858;8.768;2023-07-24T12:39:51;6.60;;;4.65;;
6505;SDS011;3286;49.858;8.768;2023-07-24T12:42:18;7.38;;;4.47;;
6505;SDS011;3286;49.858;8.768;2023-07-24T12:44:44;6.25;;;4.07;;
6505;SDS011;3286;49.858;8.768;2023-07-24T12:47:12;6.78;;;4.45;;
6505;SDS011;3286;49.858;8.768;2023-07-24T12:49:39;7.80;;;4.40;;
6505;SDS011;3286;49.858;8.768;2023-07-24T12:52:06;9.45;;;4.30;;
6505;SDS011;3286;49.858;8.768;2023-07-24T12:54:33;5.57;;;4.13;;
6505;SDS011;3286;49.858;8.768;2023-07-24T12:57:00;7.18;;;4.80;;
6505;SDS011;3286;49.858;8.768;2023-07-24T12:59:27;7.65;;;4.78;;
6505;SDS011;3286;49.858;8.768;2023-07-24T13:01:54;6.47;;;4.50;;
6505;SDS011;3286;49.858;8.768;2023-07-24T13:04:22;6.03;;;3.83;;
6505;SDS011;3286;49.858;8.768;2023-07-24T13:06:49;9.88;;;4.35;;
6505;SDS011;3286;49.858;8.768;2023-07-24T13:09:17;9.95;;;4.57;;
6505;SDS011;3286;49.858;8.768;2023-07-24T13:11:44;9.07;;;5.15;;
6505;SDS011;3286;49.858;8.768;2023-07-24T13:14:12;6.65;;;4.63;;
6505;SDS011;3286;49.858;8.768;2023-07-24T13:16:39;8.60;;;4.50;;
6505;SDS011;3286;49.858;8.768;2023-07-24T13:19:06;5.22;;;4.30;;
6505;SDS011;3286;49.858;8.768;2023-07-24T13:21:34;7.30;;;4.65;;
6505;SDS011;3286;49.858;8.768;2023-07-24T13:24:00;7.25;;;4.72;;
6505;SDS011;3286;49.858;8.768;2023-07-24T13:26:28;5.35;;;4.13;;
6505;SDS011;3286;49.858;8.768;2023-07-24T13:28:54;6.13;;;4.30;;
6505;SDS011;3286;49.858;8.768;2023-07-24T13:31:21;7.43;;;4.32;;
6505;SDS011;3286;49.858;8.768;2023-07-24T13:33:48;9.10;;;4.63;;
6505;SDS011;3286;49.858;8.768;2023-07-24T13:36:14;7.43;;;4.68;;
6505;SDS011;3286;49.858;8.768;2023-07-24T13:38:42;5.63;;;4.50;;
6505;SDS011;3286;49.858;8.768;2023-07-24T13:41:09;8.88;;;4.85;;
6505;SDS011;3286;49.858;8.768;2023-07-24T13:43:36;6.72;;;4.60;;
6505;SDS011;3286;49.858;8.768;2023-07-24T13:46:02;7.18;;;4.72;;
6505;SDS011;3286;49.858;8.768;2023-07-24T13:48:30;10.18;;;4.72;;
6505;SDS011;3286;49.858;8.768;2023-07-24T13:50:57;10.35;;;4.88;;
6505;SDS011;3286;49.858;8.768;2023-07-24T13:53:23;8.43;;;4.63;;
6505;SDS011;3286;49.858;8.768;2023-07-24T13:55:52;6.50;;;4.68;;
6505;SDS011;3286;49.858;8.768;2023-07-24T13:58:18;7.00;;;5.22;;
6505;SDS011;3286;49.858;8.768;2023-07-24T14:00:45;8.93;;;5.13;;
6505;SDS011;3286;49.858;8.768;2023-07-24T14:03:12;8.02;;;5.35;;
6505;SDS011;3286;49.858;8.768;2023-07-24T14:05:38;9.93;;;5.38;;
6505;SDS011;3286;49.858;8.768;2023-07-24T14:08:06;8.85;;;4.95;;
6505;SDS011;3286;49.858;8.768;2023-07-24T14:10:33;9.10;;;5.00;;
6505;SDS011;3286;49.858;8.768;2023-07-24T14:13:02;8.45;;;4.80;;
6505;SDS011;3286;49.858;8.768;2023-07-24T14:15:29;8.98;;;5.07;;
6505;SDS011;3286;49.858;8.768;2023-07-24T14:17:56;7.85;;;4.80;;
6505;SDS011;3286;49.858;8.768;2023-07-24T14:20:22;7.00;;;5.15;;
6505;SDS011;3286;49.858;8.768;2023-07-24T14:22:49;6.90;;;4.63;;
6505;SDS011;3286;49.858;8.768;2023-07-24T14:25:16;7.55;;;5.50;;
6505;SDS011;3286;49.858;8.768;2023-07-24T14:27:42;7.28;;;5.75;;
6505;SDS011;3286;49.858;8.768;2023-07-24T14:30:11;9.00;;;5.40;;
6505;SDS011;3286;49.858;8.768;2023-07-24T14:32:37;10.68;;;5.60;;
6505;SDS011;3286;49.858;8.768;2023-07-24T14:35:04;8.65;;;5.85;;
6505;SDS011;3286;49.858;8.768;2023-07-24T14:37:32;8.07;;;5.78;;
6505;SDS011;3286;49.858;8.768;2023-07-24T14:39:58;10.82;;;4.75;;
6505;SDS011;3286;49.858;8.768;2023-07-24T14:42:25;7.05;;;5.28;;
6505;SDS011;3286;49.858;8.768;2023-07-24T14:44:52;7.05;;;4.50;;
6505;SDS011;3286;49.858;8.768;2023-07-24T14:47:20;7.53;;;4.93;;
6505;SDS011;3286;49.858;8.768;2023-07-24T14:49:47;6.07;;;4.40;;
6505;SDS011;3286;49.858;8.768;2023-07-24T14:52:13;5.07;;;3.90;;
6505;SDS011;3286;49.858;8.768;2023-07-24T14:54:40;7.80;;;4.25;;
6505;SDS011;3286;49.858;8.768;2023-07-24T14:57:07;9.52;;;4.90;;
6505;SDS011;3286;49.858;8.768;2023-07-24T14:59:36;6.28;;;4.70;;
6505;SDS011;3286;49.858;8.768;2023-07-24T15:02:03;5.50;;;4.22;;
6505;SDS011;3286;49.858;8.768;2023-07-24T15:04:31;5.25;;;4.13;;
6505;SDS011;3286;49.858;8.768;2023-07-24T15:06:57;6.90;;;4.50;;
6505;SDS011;3286;49.858;8.768;2023-07-24T15:09:24;22.75;;;7.38;;
6505;SDS011;3286;49.858;8.768;2023-07-24T15:11:52;16.05;;;5.20;;
6505;SDS011;3286;49.858;8.768;2023-07-24T15:14:18;13.85;;;5.80;;
6505;SDS011;3286;49.858;8.768;2023-07-24T15:16:45;8.73;;;4.50;;
6505;SDS011;3286;49.858;8.768;2023-07-24T15:19:12;5.93;;;4.25;;
6505;SDS011;3286;49.858;8.768;2023-07-24T15:21:39;6.57;;;3.85;;
6505;SDS011;3286;49.858;8.768;2023-07-24T15:24:06;7.10;;;4.72;;